createdAt,value
2018-03-31T00:02:18.935Z,12.65
2018-03-31T00:04:46.946Z,12.64
2018-03-31T00:07:15.636Z,12.81
2018-03-31T00:09:43.578Z,12.75
2018-03-31T00:12:11.466Z,12.59
2018-03-31T00:14:39.348Z,12.56
2018-03-31T00:17:07.223Z,12.43
2018-03-31T00:19:35.615Z,12.45
2018-03-31T00:22:04.503Z,12.37
2018-03-31T00:24:32.991Z,12.30
2018-03-31T00:27:01.378Z,12.21
2018-03-31T00:29:29.840Z,12.16
2018-03-31T00:31:58.560Z,12.04
2018-03-31T00:34:27.253Z,11.99
2018-03-31T00:36:55.284Z,11.91
2018-03-31T00:39:23.165Z,11.94
2018-03-31T00:41:51.011Z,12.03
2018-03-31T00:44:19.531Z,12.13
2018-03-31T00:46:48.271Z,12.11
2018-03-31T00:49:16.265Z,12.10
2018-03-31T00:51:44.349Z,12.04
2018-03-31T00:54:12.060Z,12.10
2018-03-31T00:56:39.948Z,12.07
2018-03-31T00:59:07.662Z,12.00
2018-03-31T01:01:35.602Z,12.02
2018-03-31T01:04:03.696Z,12.05
2018-03-31T01:06:32.181Z,12.01
2018-03-31T01:09:00.680Z,12.01
2018-03-31T01:11:28.877Z,12.00
2018-03-31T01:13:57.347Z,11.96
2018-03-31T01:16:25.283Z,11.97
2018-03-31T01:18:53.297Z,11.97
2018-03-31T01:21:21.252Z,11.88
2018-03-31T01:23:48.980Z,11.75
2018-03-31T01:26:16.734Z,11.61
2018-03-31T01:28:45.404Z,11.55
2018-03-31T01:31:13.128Z,11.53
2018-03-31T01:33:40.942Z,11.45
2018-03-31T01:36:08.681Z,11.51
2018-03-31T01:38:37.237Z,11.45
2018-03-31T01:41:05.216Z,11.45
2018-03-31T01:43:33.106Z,11.43
2018-03-31T01:46:01.190Z,11.47
2018-03-31T01:48:29.552Z,11.48
2018-03-31T01:50:58.421Z,11.43
2018-03-31T01:53:26.734Z,11.45
2018-03-31T01:55:54.547Z,11.46
2018-03-31T01:58:22.594Z,11.47
2018-03-31T02:00:50.697Z,11.37
2018-03-31T02:03:18.755Z,11.33
2018-03-31T02:05:46.618Z,11.43
2018-03-31T02:08:15.308Z,11.45
2018-03-31T02:10:43.189Z,11.38
2018-03-31T02:13:11.113Z,11.28
2018-03-31T02:15:39.868Z,11.34
2018-03-31T02:18:07.796Z,11.35
2018-03-31T02:20:35.755Z,11.37
2018-03-31T02:23:03.789Z,11.32
2018-03-31T02:25:32.533Z,11.36
2018-03-31T02:28:00.744Z,11.35
2018-03-31T02:30:29.129Z,11.42
2018-03-31T02:32:58.317Z,11.41
2018-03-31T02:35:26.561Z,11.39
2018-03-31T02:37:54.362Z,11.39
2018-03-31T02:40:22.146Z,11.35
2018-03-31T02:42:50.127Z,11.42
2018-03-31T02:45:18.093Z,11.45
2018-03-31T02:47:46.202Z,11.41
2018-03-31T02:50:14.399Z,11.40
2018-03-31T02:52:42.299Z,11.33
2018-03-31T02:55:11.226Z,11.38
2018-03-31T02:57:39.563Z,11.32
2018-03-31T03:00:08.321Z,11.31
2018-03-31T03:02:36.311Z,11.30
2018-03-31T03:05:04.204Z,11.30
2018-03-31T03:07:32.197Z,11.30
2018-03-31T03:10:00.345Z,11.32
2018-03-31T03:12:29.198Z,11.39
2018-03-31T03:14:58.092Z,11.34
2018-03-31T03:17:25.779Z,11.45
2018-03-31T03:19:53.482Z,11.61
2018-03-31T03:22:21.300Z,11.65
2018-03-31T03:24:49.090Z,11.60
2018-03-31T03:27:16.947Z,11.52
2018-03-31T03:29:44.709Z,11.45
2018-03-31T03:32:12.453Z,11.48
2018-03-31T03:34:40.285Z,11.42
2018-03-31T03:37:08.112Z,11.51
2018-03-31T03:39:35.864Z,11.50
2018-03-31T03:42:03.626Z,11.51
2018-03-31T03:44:32.139Z,11.51
2018-03-31T03:46:59.886Z,11.49
2018-03-31T03:49:27.726Z,11.50
2018-03-31T03:51:55.434Z,11.49
2018-03-31T03:54:23.417Z,11.50
2018-03-31T03:56:51.514Z,11.47
2018-03-31T03:59:20.399Z,11.73
2018-03-31T04:01:49.429Z,11.69
2018-03-31T04:04:17.265Z,11.92
2018-03-31T04:06:45.330Z,12.01
2018-03-31T04:09:13.051Z,11.97
2018-03-31T04:11:40.868Z,12.02
2018-03-31T04:14:08.707Z,11.86
2018-03-31T04:16:36.466Z,11.78
2018-03-31T04:19:04.144Z,11.70
2018-03-31T04:21:31.909Z,11.57
2018-03-31T04:23:59.703Z,11.56
2018-03-31T04:26:27.475Z,11.46
2018-03-31T04:28:56.053Z,11.49
2018-03-31T04:31:23.912Z,11.53
2018-03-31T04:33:51.768Z,11.53
2018-03-31T04:36:19.541Z,11.68
2018-03-31T04:38:47.337Z,11.56
2018-03-31T04:41:16.114Z,11.73
2018-03-31T04:43:45.981Z,11.67
2018-03-31T04:46:14.510Z,11.74
2018-03-31T04:48:42.516Z,11.73
2018-03-31T04:51:10.449Z,11.69
2018-03-31T04:53:38.486Z,11.70
2018-03-31T04:56:06.386Z,11.62
2018-03-31T04:58:35.087Z,11.67
2018-03-31T05:01:02.998Z,11.58
2018-03-31T05:03:30.932Z,11.54
2018-03-31T05:05:59.671Z,11.66
2018-03-31T05:08:27.743Z,11.67
2018-03-31T05:10:55.479Z,11.83
2018-03-31T05:13:23.413Z,11.80
2018-03-31T05:15:52.037Z,11.97
2018-03-31T05:18:19.804Z,11.84
2018-03-31T05:20:48.361Z,12.02
2018-03-31T05:23:16.760Z,11.96
2018-03-31T05:25:44.936Z,12.05
2018-03-31T05:28:13.222Z,12.01
2018-03-31T05:30:40.923Z,12.24
2018-03-31T05:33:08.764Z,12.19
2018-03-31T05:35:37.383Z,12.35
2018-03-31T05:38:05.966Z,12.44
2018-03-31T05:40:33.786Z,12.45
2018-03-31T05:43:01.596Z,12.30
2018-03-31T05:45:29.438Z,12.36
2018-03-31T05:47:57.946Z,12.32
2018-03-31T05:50:26.504Z,12.41
2018-03-31T05:52:54.500Z,12.34
2018-03-31T05:55:22.335Z,12.29
2018-03-31T05:57:50.160Z,12.39
2018-03-31T06:00:17.900Z,12.43
2018-03-31T06:02:46.467Z,12.50
2018-03-31T06:05:14.981Z,12.56
2018-03-31T06:07:43.997Z,12.52
2018-03-31T06:10:12.324Z,12.48
2018-03-31T06:12:40.850Z,12.48
2018-03-31T06:15:08.581Z,12.59
2018-03-31T06:17:36.326Z,12.58
2018-03-31T06:20:04.230Z,12.65
2018-03-31T06:22:32.086Z,12.60
2018-03-31T06:25:00.598Z,12.59
2018-03-31T06:27:31.246Z,12.61
2018-03-31T06:29:59.850Z,12.55
2018-03-31T06:32:43.965Z,12.61
2018-03-31T06:35:11.743Z,12.68
2018-03-31T06:37:39.619Z,12.65
2018-03-31T06:40:07.515Z,12.66
2018-03-31T06:42:35.327Z,12.76
2018-03-31T06:45:03.181Z,12.75
2018-03-31T06:47:31.092Z,12.76
2018-03-31T06:49:59.046Z,12.78
2018-03-31T06:52:26.911Z,12.79
2018-03-31T06:54:55.493Z,12.81
2018-03-31T06:57:24.144Z,12.87
2018-03-31T06:59:52.042Z,12.85
2018-03-31T07:02:19.996Z,12.82
2018-03-31T07:04:47.826Z,12.83
2018-03-31T07:07:15.576Z,12.82
2018-03-31T07:09:44.227Z,12.81
2018-03-31T07:12:12.410Z,12.78
2018-03-31T07:14:40.994Z,12.76
2018-03-31T07:17:09.365Z,12.78
2018-03-31T07:19:37.337Z,12.78
2018-03-31T07:22:05.171Z,12.80
2018-03-31T07:24:33.043Z,12.75
2018-03-31T07:27:01.793Z,12.91
2018-03-31T07:29:29.601Z,13.02
2018-03-31T07:31:58.271Z,13.12
2018-03-31T07:34:26.202Z,13.22
2018-03-31T07:36:54.162Z,13.12
2018-03-31T07:39:22.017Z,13.08
2018-03-31T07:41:50.634Z,13.78
2018-03-31T07:44:18.439Z,14.18
2018-03-31T07:46:46.243Z,14.04
2018-03-31T07:49:14.082Z,14.46
2018-03-31T07:51:42.003Z,14.56
2018-03-31T07:54:10.100Z,13.92
2018-03-31T07:56:38.519Z,13.67
2018-03-31T07:59:06.867Z,13.74
2018-03-31T08:01:36.073Z,13.71
2018-03-31T08:04:04.329Z,13.60
2018-03-31T08:06:32.226Z,13.39
2018-03-31T08:09:00.059Z,13.47
2018-03-31T08:11:28.930Z,13.46
2018-03-31T08:13:56.895Z,13.40
2018-03-31T08:16:24.890Z,13.41
2018-03-31T08:18:52.815Z,13.80
2018-03-31T08:21:20.878Z,14.42
2018-03-31T08:23:48.749Z,14.52
2018-03-31T08:26:17.910Z,14.11
2018-03-31T08:28:47.063Z,14.34
2018-03-31T08:31:15.017Z,14.31
2018-03-31T08:33:43.079Z,14.70
2018-03-31T08:36:11.777Z,14.93
2018-03-31T08:38:40.831Z,14.86
2018-03-31T08:41:09.033Z,15.19
2018-03-31T08:43:37.706Z,15.42
2018-03-31T08:46:06.624Z,15.78
2018-03-31T08:48:34.798Z,14.84
2018-03-31T08:51:04.433Z,14.52
2018-03-31T08:53:33.512Z,14.48
2018-03-31T08:56:02.714Z,14.37
2018-03-31T08:58:31.514Z,15.00
2018-03-31T09:01:00.312Z,14.48
2018-03-31T09:03:28.534Z,14.83
2018-03-31T09:05:58.944Z,15.72
2018-03-31T09:08:27.866Z,16.53
2018-03-31T09:10:56.846Z,16.33
2018-03-31T09:13:26.551Z,16.11
2018-03-31T09:15:55.798Z,15.29
2018-03-31T09:18:24.407Z,14.51
2018-03-31T09:20:52.609Z,14.39
2018-03-31T09:23:22.333Z,14.40
2018-03-31T09:25:51.728Z,14.34
2018-03-31T09:28:23.182Z,14.47
2018-03-31T09:30:53.011Z,14.55
2018-03-31T09:33:21.600Z,14.39
2018-03-31T09:35:49.596Z,14.22
2018-03-31T09:38:18.351Z,14.21
2018-03-31T09:40:47.808Z,14.41
2018-03-31T09:43:17.150Z,15.16
2018-03-31T09:45:46.372Z,15.35
2018-03-31T09:48:14.264Z,14.66
2018-03-31T09:50:42.508Z,14.06
2018-03-31T09:53:10.605Z,14.22
2018-03-31T09:55:39.895Z,14.05
2018-03-31T09:58:08.140Z,14.01
2018-03-31T10:00:36.151Z,14.31
2018-03-31T10:03:04.052Z,14.91
2018-03-31T10:05:32.571Z,16.41
2018-03-31T10:08:01.397Z,16.14
2018-03-31T10:10:30.235Z,16.25
2018-03-31T10:12:59.413Z,14.04
2018-03-31T10:15:27.436Z,13.25
2018-03-31T10:17:56.137Z,13.12
2018-03-31T10:20:26.484Z,13.07
2018-03-31T10:22:56.330Z,13.03
2018-03-31T10:25:25.481Z,12.27
2018-03-31T10:27:54.403Z,11.68
2018-03-31T10:30:23.294Z,11.31
2018-03-31T10:32:52.349Z,11.17
2018-03-31T10:35:20.460Z,11.25
2018-03-31T10:37:49.060Z,11.57
2018-03-31T10:40:17.513Z,12.29
2018-03-31T10:42:45.418Z,13.33
2018-03-31T10:45:14.066Z,13.59
2018-03-31T10:47:42.113Z,13.74
2018-03-31T10:50:10.062Z,13.63
2018-03-31T10:52:39.390Z,14.22
2018-03-31T10:55:08.911Z,15.02
2018-03-31T10:57:38.476Z,16.27
2018-03-31T11:00:06.435Z,15.45
2018-03-31T11:02:35.072Z,15.42
2018-03-31T11:05:03.586Z,15.41
2018-03-31T11:07:32.045Z,15.65
2018-03-31T11:10:02.424Z,15.39
2018-03-31T11:12:30.380Z,16.23
2018-03-31T11:14:59.249Z,16.02
2018-03-31T11:17:27.657Z,16.41
2018-03-31T11:19:56.248Z,16.06
2018-03-31T11:22:24.346Z,16.07
2018-03-31T11:24:52.277Z,15.11
2018-03-31T11:27:21.166Z,15.95
2018-03-31T11:29:50.774Z,15.33
2018-03-31T11:32:20.587Z,15.27
2018-03-31T11:34:48.812Z,14.93
2018-03-31T11:37:17.106Z,15.25
2018-03-31T11:39:45.024Z,15.56
2018-03-31T11:42:13.385Z,16.46
2018-03-31T11:44:41.578Z,16.11
2018-03-31T11:47:09.917Z,16.65
2018-03-31T11:49:37.778Z,16.71
2018-03-31T11:52:06.210Z,16.02
2018-03-31T11:54:34.155Z,16.68
2018-03-31T11:57:03.741Z,16.51
2018-03-31T11:59:32.824Z,16.04
2018-03-31T12:02:00.865Z,15.71
2018-03-31T12:04:28.827Z,15.69
2018-03-31T12:06:59.092Z,15.91
2018-03-31T12:09:29.534Z,16.29
2018-03-31T12:11:59.392Z,15.76
2018-03-31T12:14:27.740Z,15.05
2018-03-31T12:16:55.760Z,15.17
2018-03-31T12:19:24.983Z,15.36
2018-03-31T12:21:54.491Z,15.28
2018-03-31T12:24:22.876Z,15.58
2018-03-31T12:26:50.936Z,16.13
2018-03-31T12:29:19.085Z,16.19
2018-03-31T12:31:47.546Z,15.99
2018-03-31T12:34:16.695Z,16.22
2018-03-31T12:36:45.762Z,16.71
2018-03-31T12:39:14.863Z,16.83
2018-03-31T12:41:44.398Z,16.96
2018-03-31T12:44:13.275Z,16.63
2018-03-31T12:46:43.131Z,16.49
2018-03-31T12:49:12.353Z,16.24
2018-03-31T12:51:41.815Z,16.15
2018-03-31T12:54:11.354Z,15.46
2018-03-31T12:56:40.093Z,16.71
2018-03-31T12:59:09.068Z,16.73
2018-03-31T13:01:38.305Z,16.37
2018-03-31T13:04:06.922Z,16.31
2018-03-31T13:06:36.044Z,15.60
2018-03-31T13:09:04.628Z,16.09
2018-03-31T13:11:35.359Z,15.97
2018-03-31T13:14:05.443Z,16.57
2018-03-31T13:16:35.177Z,16.40
2018-03-31T13:19:06.419Z,16.18
2018-03-31T13:21:37.185Z,16.14
2018-03-31T13:24:06.883Z,15.91
2018-03-31T13:26:35.810Z,17.00
2018-03-31T13:29:04.285Z,15.74
2018-03-31T13:31:32.639Z,15.13
2018-03-31T13:34:00.896Z,14.83
2018-03-31T13:36:29.344Z,15.81
2018-03-31T13:38:59.282Z,15.50
2018-03-31T13:41:29.080Z,16.04
2018-03-31T13:43:59.620Z,16.60
2018-03-31T13:46:28.100Z,16.95
2018-03-31T13:48:56.289Z,16.75
2018-03-31T13:51:24.825Z,16.84
2018-03-31T13:53:53.081Z,17.29
2018-03-31T13:56:21.229Z,16.42
2018-03-31T13:58:51.052Z,16.58
2018-03-31T14:01:21.334Z,16.62
2018-03-31T14:03:49.572Z,15.92
2018-03-31T14:06:19.318Z,16.62
2018-03-31T14:08:47.993Z,15.98
2018-03-31T14:11:17.064Z,15.59
2018-03-31T14:13:46.959Z,15.12
2018-03-31T14:16:15.743Z,15.17
2018-03-31T14:18:44.255Z,15.06
2018-03-31T14:21:12.498Z,15.51
2018-03-31T14:23:40.446Z,15.50
2018-03-31T14:26:09.746Z,15.47
2018-03-31T14:28:40.024Z,15.41
2018-03-31T14:31:08.518Z,15.18
2018-03-31T14:33:37.580Z,15.19
2018-03-31T14:36:06.002Z,15.13
2018-03-31T14:38:35.132Z,14.70
2018-03-31T14:41:03.354Z,14.71
2018-03-31T14:43:33.285Z,14.78
2018-03-31T14:46:01.485Z,14.42
2018-03-31T14:48:29.703Z,14.05
2018-03-31T14:50:58.034Z,14.20
2018-03-31T14:53:26.363Z,14.11
2018-03-31T14:55:54.379Z,14.06
2018-03-31T14:58:23.132Z,14.03
2018-03-31T15:00:52.226Z,13.97
2018-03-31T15:03:21.026Z,13.82
2018-03-31T15:05:48.951Z,13.84
2018-03-31T15:08:18.449Z,13.66
2018-03-31T15:10:47.421Z,13.67
2018-03-31T15:13:16.512Z,13.82
2018-03-31T15:15:45.577Z,13.86
2018-03-31T15:18:14.525Z,13.89
2018-03-31T15:20:46.435Z,13.73
2018-03-31T15:23:15.624Z,13.72
2018-03-31T15:25:46.303Z,13.61
2018-03-31T15:28:16.364Z,13.43
2018-03-31T15:30:45.103Z,13.48
2018-03-31T15:33:15.383Z,13.31
2018-03-31T15:35:46.005Z,13.23
2018-03-31T15:38:14.738Z,13.26
2018-03-31T15:40:44.239Z,13.30
2018-03-31T15:43:14.604Z,13.19
2018-03-31T15:45:43.826Z,13.04
2018-03-31T15:48:12.592Z,13.04
2018-03-31T15:50:42.395Z,12.97
2018-03-31T15:53:10.908Z,12.41
2018-03-31T15:55:39.180Z,11.64
2018-03-31T15:58:07.805Z,11.26
2018-03-31T16:00:36.156Z,10.46
2018-03-31T16:03:05.378Z,10.15
2018-03-31T16:05:35.787Z,9.85
2018-03-31T16:08:05.608Z,9.90
2018-03-31T16:10:34.588Z,9.87
2018-03-31T16:13:05.789Z,9.74
2018-03-31T16:15:35.679Z,9.73
2018-03-31T16:18:05.874Z,9.77
2018-03-31T16:20:35.300Z,9.78
2018-03-31T16:23:04.424Z,9.70
2018-03-31T16:25:34.164Z,9.70
2018-03-31T16:28:03.346Z,9.68
2018-03-31T16:30:33.025Z,9.67
2018-03-31T16:33:04.131Z,9.69
2018-03-31T16:35:33.367Z,9.67
2018-03-31T16:38:03.509Z,9.66
2018-03-31T16:40:33.497Z,9.60
2018-03-31T16:43:03.747Z,9.53
2018-03-31T16:45:33.523Z,9.54
2018-03-31T16:48:03.215Z,9.45
2018-03-31T16:50:33.484Z,9.43
2018-03-31T16:53:02.376Z,9.36
2018-03-31T16:55:31.428Z,9.23
2018-03-31T16:58:01.498Z,9.05
2018-03-31T17:00:33.735Z,8.99
2018-03-31T17:03:03.295Z,8.89
2018-03-31T17:05:33.310Z,8.81
2018-03-31T17:08:02.997Z,8.75
2018-03-31T17:10:31.934Z,8.78
2018-03-31T17:13:01.053Z,8.73
2018-03-31T17:15:31.597Z,8.72
2018-03-31T17:18:02.549Z,8.68
2018-03-31T17:20:30.855Z,8.72
2018-03-31T17:22:59.542Z,8.72
2018-03-31T17:25:28.363Z,8.87
2018-03-31T17:27:57.473Z,8.87
2018-03-31T17:30:29.285Z,8.86
2018-03-31T17:32:58.681Z,8.86
2018-03-31T17:35:28.832Z,9.05
2018-03-31T17:37:58.308Z,9.11
2018-03-31T17:40:27.817Z,9.24
2018-03-31T17:42:57.518Z,9.22
2018-03-31T17:45:26.332Z,9.33
2018-03-31T17:47:55.612Z,9.28
2018-03-31T17:50:25.605Z,9.36
2018-03-31T17:52:55.291Z,9.39
2018-03-31T17:55:25.378Z,9.41
2018-03-31T17:57:55.470Z,9.31
2018-03-31T18:00:24.918Z,9.29
2018-03-31T18:02:53.916Z,9.25
2018-03-31T18:05:24.604Z,9.17
2018-03-31T18:07:54.624Z,9.21
2018-03-31T18:10:27.084Z,9.08
2018-03-31T18:12:56.805Z,9.05
2018-03-31T18:15:26.673Z,9.09
2018-03-31T18:17:57.756Z,9.06
2018-03-31T18:20:27.201Z,9.14
2018-03-31T18:22:57.027Z,9.10
2018-03-31T18:25:25.736Z,9.08
2018-03-31T18:27:55.739Z,9.08
2018-03-31T18:30:24.936Z,8.98
2018-03-31T18:32:54.395Z,8.90
2018-03-31T18:35:24.558Z,8.75
2018-03-31T18:37:53.981Z,8.73
2018-03-31T18:40:26.143Z,8.58
2018-03-31T18:42:56.305Z,8.48
2018-03-31T18:45:25.926Z,8.37
2018-03-31T18:47:56.417Z,8.31
2018-03-31T18:50:26.610Z,8.30
2018-03-31T18:52:58.228Z,8.20
2018-03-31T18:55:27.204Z,8.07
2018-03-31T18:57:56.723Z,8.05
2018-03-31T19:00:26.364Z,8.00
2018-03-31T19:02:57.927Z,8.00
2018-03-31T19:05:27.977Z,8.02
2018-03-31T19:07:59.030Z,7.99
2018-03-31T19:10:28.246Z,7.94
2018-03-31T19:12:58.116Z,7.95
2018-03-31T19:15:28.055Z,7.89
2018-03-31T19:17:57.124Z,7.89
2018-03-31T19:20:26.750Z,7.88
2018-03-31T19:22:56.553Z,7.85
2018-03-31T19:25:32.479Z,7.76
2018-03-31T19:28:01.522Z,7.81
2018-03-31T19:30:35.705Z,7.85
2018-03-31T19:33:05.894Z,7.83
2018-03-31T19:35:41.618Z,7.87
2018-03-31T19:38:09.977Z,7.88
2018-03-31T19:40:38.965Z,7.89
2018-03-31T19:43:09.821Z,7.92
2018-03-31T19:45:39.308Z,7.88
2018-03-31T19:48:09.103Z,7.90
2018-03-31T19:50:38.892Z,7.87
2018-03-31T19:53:07.730Z,7.84
2018-03-31T19:55:37.033Z,7.89
2018-03-31T19:58:06.370Z,7.88
2018-03-31T20:00:37.354Z,7.91
2018-03-31T20:03:08.601Z,7.88
2018-03-31T20:05:38.828Z,7.90
2018-03-31T20:08:09.497Z,7.89
2018-03-31T20:10:38.866Z,7.85
2018-03-31T20:13:09.309Z,7.83
2018-03-31T20:15:37.752Z,7.88
2018-03-31T20:18:05.933Z,7.82
2018-03-31T20:20:34.971Z,7.71
2018-03-31T20:23:09.496Z,7.60
2018-03-31T20:25:37.979Z,7.55
2018-03-31T20:28:06.881Z,7.66
2018-03-31T20:30:35.619Z,7.63
2018-03-31T20:33:05.161Z,7.72
2018-03-31T20:35:36.008Z,7.81
2018-03-31T20:38:11.206Z,7.77
2018-03-31T20:40:43.225Z,7.65
2018-03-31T20:43:13.516Z,7.52
2018-03-31T20:45:43.655Z,7.59
2018-03-31T20:48:13.249Z,7.57
2018-03-31T20:50:43.826Z,7.59
2018-03-31T20:53:15.792Z,7.73
2018-03-31T20:55:50.575Z,7.73
2018-03-31T20:58:20.788Z,7.76
2018-03-31T21:00:52.208Z,7.84
2018-03-31T21:03:22.441Z,7.75
2018-03-31T21:05:52.986Z,7.67
2018-03-31T21:08:24.296Z,7.59
2018-03-31T21:10:54.456Z,7.49
2018-03-31T21:13:24.632Z,7.35
2018-03-31T21:15:55.735Z,7.22
2018-03-31T21:18:25.488Z,7.11
2018-03-31T21:20:55.885Z,7.02
2018-03-31T21:23:25.535Z,7.00
2018-03-31T21:25:54.719Z,7.01
2018-03-31T21:28:26.197Z,6.91
2018-03-31T21:30:56.025Z,6.85
2018-03-31T21:33:25.584Z,6.76
2018-03-31T21:35:54.956Z,6.80
2018-03-31T21:38:25.459Z,6.89
2018-03-31T21:40:53.985Z,6.91
2018-03-31T21:43:23.505Z,6.88
2018-03-31T21:45:51.982Z,6.95
2018-03-31T21:48:20.200Z,6.97
2018-03-31T21:50:48.525Z,7.02
2018-03-31T21:53:18.304Z,7.12
2018-03-31T21:55:46.267Z,7.18
2018-03-31T21:58:14.848Z,7.23
2018-03-31T22:00:43.220Z,7.22
2018-03-31T22:03:12.952Z,7.23
2018-03-31T22:05:44.071Z,7.27
2018-03-31T22:08:12.625Z,7.30
2018-03-31T22:10:41.146Z,7.30
2018-03-31T22:13:14.593Z,7.36
2018-03-31T22:15:49.059Z,7.42
2018-03-31T22:18:17.165Z,7.40
2018-03-31T22:20:45.065Z,7.46
2018-03-31T22:23:13.464Z,7.51
2018-03-31T22:25:41.710Z,7.52
2018-03-31T22:28:09.552Z,7.52
2018-03-31T22:30:39.598Z,7.42
2018-03-31T22:33:08.248Z,7.49
2018-03-31T22:35:36.688Z,7.41
2018-03-31T22:38:04.947Z,7.23
2018-03-31T22:40:32.844Z,7.18
2018-03-31T22:43:01.135Z,7.16
2018-03-31T22:45:29.035Z,7.14
2018-03-31T22:47:57.247Z,7.11
2018-03-31T22:50:25.258Z,7.05
2018-03-31T22:52:54.358Z,7.07
2018-03-31T22:55:22.162Z,7.05
2018-03-31T22:57:50.684Z,7.02
2018-03-31T23:00:19.069Z,6.83
2018-03-31T23:02:46.968Z,6.82
2018-03-31T23:05:14.865Z,6.72
2018-03-31T23:07:43.009Z,6.61
2018-03-31T23:10:11.139Z,6.57
2018-03-31T23:12:40.052Z,6.60
2018-03-31T23:15:08.437Z,6.69
2018-03-31T23:17:36.790Z,6.90
2018-03-31T23:20:05.353Z,6.88
2018-03-31T23:22:33.262Z,6.90
2018-03-31T23:25:01.210Z,6.93
2018-03-31T23:27:30.156Z,7.07
2018-03-31T23:29:57.948Z,7.14
2018-03-31T23:32:26.104Z,7.14
2018-03-31T23:34:54.305Z,7.22
2018-03-31T23:37:23.018Z,7.16
2018-03-31T23:39:50.886Z,7.09
2018-03-31T23:42:19.261Z,7.04
2018-03-31T23:44:47.849Z,6.99
2018-03-31T23:47:15.769Z,7.05
2018-03-31T23:49:43.639Z,7.07
2018-03-31T23:52:11.847Z,7.05
2018-03-31T23:54:40.910Z,7.00
2018-03-31T23:57:09.716Z,6.97
2018-03-31T23:59:38.637Z,6.91
